Jelm, Wyoming
Current Conditions -  °F | °C
As of 12:11 AM on Sunday 23 Nov 2014 (Local Time) from KLAR Reporting Station
Light Snow Light Snow  
Wind Chill: 15°   Ceiling: 3000
Heat Index: 29°   Visibility: 5mi
Dew Point: 23°   Wind: 22mph
Humidity: 78%   Direction: 310°NW
Pressure: 29.67"   Gusts: 36mph
Location:  41.06°N, 106.01°W
Report Text: KLAR 230711Z AUTO 31019G31KT 5SM -SN FEW010 BKN030 OVC037 M02/M05 A2967 RMK AO2 PK WND 30031/0703 P0000 T10171050
Loading
Personal Weather Stations






























Interactive Weather Map New forecast layout! Learn more

10-Day Weather Forecast

Advertisements
Track Severe Weather on mobile